sensor_id;sensor_type;location;lat;lon;timestamp;pressure;altitude;pressure_sealevel;temperature;humidity
42411;BME280;28056;51.112;0.984;2023-04-05T00:04:49;101568.86;;;7.44;41.84
42411;BME280;28056;51.112;0.984;2023-04-05T00:07:17;101563.34;;;7.63;41.53
42411;BME280;28056;51.112;0.984;2023-04-05T00:09:45;101558.40;;;7.51;42.67
42411;BME280;28056;51.112;0.984;2023-04-05T00:12:12;101557.35;;;7.53;42.16
42411;BME280;28056;51.112;0.984;2023-04-05T00:14:39;101555.56;;;7.47;42.30
42411;BME280;28056;51.112;0.984;2023-04-05T00:17:07;101560.35;;;7.53;42.77
42411;BME280;28056;51.112;0.984;2023-04-05T00:19:34;101563.12;;;6.34;46.36
42411;BME280;28056;51.112;0.984;2023-04-05T00:22:02;101562.15;;;6.57;44.85
42411;BME280;28056;51.112;0.984;2023-04-05T00:24:29;101559.68;;;6.77;43.23
42411;BME280;28056;51.112;0.984;2023-04-05T00:26:57;101555.94;;;7.00;43.63
42411;BME280;28056;51.112;0.984;2023-04-05T00:29:24;101550.63;;;7.03;43.61
42411;BME280;28056;51.112;0.984;2023-04-05T00:31:52;101543.84;;;6.80;43.99
42411;BME280;28056;51.112;0.984;2023-04-05T00:34:19;101540.35;;;6.78;45.33
42411;BME280;28056;51.112;0.984;2023-04-05T00:36:47;101536.45;;;7.33;44.47
42411;BME280;28056;51.112;0.984;2023-04-05T00:39:14;101534.96;;;6.75;46.32
42411;BME280;28056;51.112;0.984;2023-04-05T00:41:41;101534.91;;;7.13;45.93
42411;BME280;28056;51.112;0.984;2023-04-05T00:44:09;101529.72;;;6.94;45.54
42411;BME280;28056;51.112;0.984;2023-04-05T00:46:36;101525.69;;;7.04;44.74
42411;BME280;28056;51.112;0.984;2023-04-05T00:49:04;101524.90;;;6.83;45.52
42411;BME280;28056;51.112;0.984;2023-04-05T00:51:31;101519.75;;;6.88;45.24
42411;BME280;28056;51.112;0.984;2023-04-05T00:54:00;101514.93;;;7.02;45.68
42411;BME280;28056;51.112;0.984;2023-04-05T00:56:27;101512.39;;;6.92;46.15
42411;BME280;28056;51.112;0.984;2023-04-05T00:58:55;101508.98;;;7.16;44.97
42411;BME280;28056;51.112;0.984;2023-04-05T01:01:24;101506.80;;;6.93;45.02
42411;BME280;28056;51.112;0.984;2023-04-05T01:03:56;101508.57;;;6.98;43.84
42411;BME280;28056;51.112;0.984;2023-04-05T01:06:35;101508.06;;;7.25;43.67
42411;BME280;28056;51.112;0.984;2023-04-05T01:09:10;101508.95;;;7.03;44.80
42411;BME280;28056;51.112;0.984;2023-04-05T01:11:42;101504.89;;;6.63;44.60
42411;BME280;28056;51.112;0.984;2023-04-05T01:14:11;101501.35;;;7.07;43.01
42411;BME280;28056;51.112;0.984;2023-04-05T01:16:39;101500.16;;;6.76;43.10
42411;BME280;28056;51.112;0.984;2023-04-05T01:19:06;101501.47;;;6.45;43.64
42411;BME280;28056;51.112;0.984;2023-04-05T01:21:54;101499.40;;;6.82;43.74
42411;BME280;28056;51.112;0.984;2023-04-05T01:24:36;101493.16;;;6.69;43.20
42411;BME280;28056;51.112;0.984;2023-04-05T01:27:10;101489.42;;;6.41;44.73
42411;BME280;28056;51.112;0.984;2023-04-05T01:29:46;101482.99;;;6.59;44.00
42411;BME280;28056;51.112;0.984;2023-04-05T01:32:23;101482.05;;;6.77;44.55
42411;BME280;28056;51.112;0.984;2023-04-05T01:35:03;101482.69;;;6.64;43.88
42411;BME280;28056;51.112;0.984;2023-04-05T01:37:33;101479.07;;;6.48;44.75
42411;BME280;28056;51.112;0.984;2023-04-05T01:40:02;101476.48;;;6.66;45.07
42411;BME280;28056;51.112;0.984;2023-04-05T01:42:29;101472.14;;;6.73;44.04
42411;BME280;28056;51.112;0.984;2023-04-05T01:44:57;101470.84;;;6.53;45.58
42411;BME280;28056;51.112;0.984;2023-04-05T01:47:25;101464.68;;;6.64;43.94
42411;BME280;28056;51.112;0.984;2023-04-05T01:49:52;101459.99;;;6.44;44.25
42411;BME280;28056;51.112;0.984;2023-04-05T01:52:19;101455.02;;;5.52;47.25
42411;BME280;28056;51.112;0.984;2023-04-05T01:54:47;101451.85;;;5.61;47.70
42411;BME280;28056;51.112;0.984;2023-04-05T01:57:15;101448.26;;;5.52;49.20
42411;BME280;28056;51.112;0.984;2023-04-05T01:59:42;101445.94;;;5.65;49.22
42411;BME280;28056;51.112;0.984;2023-04-05T02:02:09;101447.28;;;5.41;49.23
42411;BME280;28056;51.112;0.984;2023-04-05T02:04:37;101443.90;;;5.48;49.01
42411;BME280;28056;51.112;0.984;2023-04-05T02:07:04;101442.71;;;5.69;46.73
42411;BME280;28056;51.112;0.984;2023-04-05T02:09:32;101438.16;;;5.84;47.35
42411;BME280;28056;51.112;0.984;2023-04-05T02:12:05;101434.08;;;5.66;47.90
42411;BME280;28056;51.112;0.984;2023-04-05T02:14:32;101434.40;;;6.14;46.83
42411;BME280;28056;51.112;0.984;2023-04-05T02:17:00;101432.50;;;6.04;46.38
42411;BME280;28056;51.112;0.984;2023-04-05T02:19:28;101434.31;;;6.16;45.62
42411;BME280;28056;51.112;0.984;2023-04-05T02:21:55;101431.22;;;5.87;45.90
42411;BME280;28056;51.112;0.984;2023-04-05T02:24:22;101433.69;;;5.85;47.67
42411;BME280;28056;51.112;0.984;2023-04-05T02:26:49;101425.29;;;5.97;46.75
42411;BME280;28056;51.112;0.984;2023-04-05T02:29:17;101421.68;;;5.98;45.94
42411;BME280;28056;51.112;0.984;2023-04-05T02:31:44;101420.15;;;5.74;47.61
42411;BME280;28056;51.112;0.984;2023-04-05T02:34:12;101417.63;;;6.00;47.34
42411;BME280;28056;51.112;0.984;2023-04-05T02:37:49;101416.24;;;6.09;46.43
42411;BME280;28056;51.112;0.984;2023-04-05T02:40:17;101413.26;;;5.88;47.04
42411;BME280;28056;51.112;0.984;2023-04-05T02:42:44;101411.25;;;6.27;46.76
42411;BME280;28056;51.112;0.984;2023-04-05T02:45:12;101407.92;;;5.86;47.26
42411;BME280;28056;51.112;0.984;2023-04-05T02:47:39;101401.64;;;5.90;46.30
42411;BME280;28056;51.112;0.984;2023-04-05T02:50:07;101398.86;;;5.95;46.08
42411;BME280;28056;51.112;0.984;2023-04-05T02:52:35;101397.58;;;5.20;49.18
42411;BME280;28056;51.112;0.984;2023-04-05T02:55:02;101395.76;;;5.39;48.76
42411;BME280;28056;51.112;0.984;2023-04-05T02:57:29;101394.52;;;5.70;46.98
42411;BME280;28056;51.112;0.984;2023-04-05T02:59:57;101396.19;;;5.80;46.78
42411;BME280;28056;51.112;0.984;2023-04-05T03:02:25;101399.24;;;5.85;45.98
42411;BME280;28056;51.112;0.984;2023-04-05T03:04:53;101399.22;;;5.92;46.43
42411;BME280;28056;51.112;0.984;2023-04-05T03:07:20;101400.80;;;5.70;46.88
42411;BME280;28056;51.112;0.984;2023-04-05T03:09:48;101398.84;;;5.96;47.06
42411;BME280;28056;51.112;0.984;2023-04-05T03:12:16;101401.71;;;5.85;46.34
42411;BME280;28056;51.112;0.984;2023-04-05T03:14:43;101401.57;;;5.69;47.75
42411;BME280;28056;51.112;0.984;2023-04-05T03:17:11;101401.63;;;6.04;46.75
42411;BME280;28056;51.112;0.984;2023-04-05T03:19:38;101400.75;;;5.82;46.29
42411;BME280;28056;51.112;0.984;2023-04-05T03:22:06;101401.81;;;5.96;47.28
42411;BME280;28056;51.112;0.984;2023-04-05T03:24:33;101401.81;;;5.82;48.78
42411;BME280;28056;51.112;0.984;2023-04-05T03:27:01;101402.53;;;5.47;49.07
42411;BME280;28056;51.112;0.984;2023-04-05T03:29:29;101399.04;;;5.63;47.37
42411;BME280;28056;51.112;0.984;2023-04-05T03:31:57;101394.35;;;5.87;47.07
42411;BME280;28056;51.112;0.984;2023-04-05T03:34:25;101391.30;;;5.67;47.65
42411;BME280;28056;51.112;0.984;2023-04-05T03:36:53;101389.11;;;5.86;47.79
42411;BME280;28056;51.112;0.984;2023-04-05T03:39:20;101388.48;;;5.96;46.87
42411;BME280;28056;51.112;0.984;2023-04-05T03:41:47;101384.65;;;5.74;46.66
42411;BME280;28056;51.112;0.984;2023-04-05T03:44:15;101385.00;;;5.93;46.31
42411;BME280;28056;51.112;0.984;2023-04-05T03:46:42;101383.05;;;5.76;46.17
42411;BME280;28056;51.112;0.984;2023-04-05T03:49:10;101380.95;;;6.00;46.61
42411;BME280;28056;51.112;0.984;2023-04-05T03:51:37;101377.75;;;5.82;46.72
42411;BME280;28056;51.112;0.984;2023-04-05T03:54:05;101377.79;;;5.88;47.14
42411;BME280;28056;51.112;0.984;2023-04-05T03:56:32;101376.42;;;5.73;46.51
42411;BME280;28056;51.112;0.984;2023-04-05T03:58:59;101372.98;;;5.95;46.71
42411;BME280;28056;51.112;0.984;2023-04-05T04:01:27;101369.73;;;5.67;47.42
42411;BME280;28056;51.112;0.984;2023-04-05T04:03:54;101372.76;;;5.79;46.60
42411;BME280;28056;51.112;0.984;2023-04-05T04:06:22;101370.59;;;5.65;48.23
42411;BME280;28056;51.112;0.984;2023-04-05T04:08:49;101367.71;;;5.88;47.35
42411;BME280;28056;51.112;0.984;2023-04-05T04:11:16;101363.79;;;5.82;48.11
42411;BME280;28056;51.112;0.984;2023-04-05T04:13:43;101362.93;;;5.69;47.38
42411;BME280;28056;51.112;0.984;2023-04-05T04:16:11;101366.78;;;5.70;48.71
42411;BME280;28056;51.112;0.984;2023-04-05T04:18:39;101370.26;;;5.67;48.31
42411;BME280;28056;51.112;0.984;2023-04-05T04:21:06;101368.32;;;5.52;47.15
42411;BME280;28056;51.112;0.984;2023-04-05T04:23:34;101372.83;;;5.54;46.44
42411;BME280;28056;51.112;0.984;2023-04-05T04:26:01;101376.07;;;5.57;46.67
42411;BME280;28056;51.112;0.984;2023-04-05T04:28:29;101378.98;;;5.67;47.68
42411;BME280;28056;51.112;0.984;2023-04-05T04:30:56;101376.25;;;5.57;47.80
42411;BME280;28056;51.112;0.984;2023-04-05T04:33:23;101372.30;;;5.67;47.02
42411;BME280;28056;51.112;0.984;2023-04-05T04:35:51;101370.89;;;5.70;48.25
42411;BME280;28056;51.112;0.984;2023-04-05T04:38:18;101374.23;;;5.70;48.22
42411;BME280;28056;51.112;0.984;2023-04-05T04:40:45;101374.51;;;5.73;49.02
42411;BME280;28056;51.112;0.984;2023-04-05T04:43:13;101374.21;;;5.52;49.44
42411;BME280;28056;51.112;0.984;2023-04-05T04:45:41;101375.20;;;5.36;48.06
42411;BME280;28056;51.112;0.984;2023-04-05T04:48:08;101374.40;;;5.29;47.88
42411;BME280;28056;51.112;0.984;2023-04-05T04:50:35;101376.36;;;5.46;47.81
42411;BME280;28056;51.112;0.984;2023-04-05T04:53:02;101375.51;;;5.10;47.22
42411;BME280;28056;51.112;0.984;2023-04-05T04:55:30;101374.24;;;5.62;47.15
42411;BME280;28056;51.112;0.984;2023-04-05T04:57:57;101371.36;;;5.70;47.57
42411;BME280;28056;51.112;0.984;2023-04-05T05:00:24;101371.62;;;5.64;47.57
42411;BME280;28056;51.112;0.984;2023-04-05T05:02:52;101371.28;;;5.49;46.96
42411;BME280;28056;51.112;0.984;2023-04-05T05:05:22;101372.09;;;5.43;47.26
42411;BME280;28056;51.112;0.984;2023-04-05T05:07:49;101368.51;;;5.31;47.03
42411;BME280;28056;51.112;0.984;2023-04-05T05:10:16;101366.94;;;5.60;46.81
42411;BME280;28056;51.112;0.984;2023-04-05T05:12:44;101367.64;;;5.23;48.05
42411;BME280;28056;51.112;0.984;2023-04-05T05:15:11;101367.37;;;5.58;47.49
42411;BME280;28056;51.112;0.984;2023-04-05T05:17:39;101368.53;;;5.69;46.83
42411;BME280;28056;51.112;0.984;2023-04-05T05:20:08;101367.48;;;5.36;47.28
42411;BME280;28056;51.112;0.984;2023-04-05T05:22:36;101364.29;;;5.42;47.53
42411;BME280;28056;51.112;0.984;2023-04-05T05:25:05;101365.54;;;5.09;48.10
42411;BME280;28056;51.112;0.984;2023-04-05T05:27:32;101366.98;;;4.82;49.60
42411;BME280;28056;51.112;0.984;2023-04-05T05:30:00;101367.54;;;4.83;50.15
42411;BME280;28056;51.112;0.984;2023-04-05T05:32:28;101365.34;;;4.48;51.41
42411;BME280;28056;51.112;0.984;2023-04-05T05:34:55;101368.51;;;5.03;50.27
42411;BME280;28056;51.112;0.984;2023-04-05T05:37:29;101367.97;;;4.48;51.44
42411;BME280;28056;51.112;0.984;2023-04-05T05:39:58;101371.55;;;5.05;50.39
42411;BME280;28056;51.112;0.984;2023-04-05T05:42:26;101374.08;;;5.17;49.42
42411;BME280;28056;51.112;0.984;2023-04-05T05:44:54;101374.42;;;5.29;49.36
42411;BME280;28056;51.112;0.984;2023-04-05T05:47:21;101374.63;;;5.30;49.17
42411;BME280;28056;51.112;0.984;2023-04-05T05:49:48;101374.12;;;5.44;48.85
42411;BME280;28056;51.112;0.984;2023-04-05T05:52:15;101373.82;;;5.60;48.53
42411;BME280;28056;51.112;0.984;2023-04-05T05:54:43;101373.24;;;5.00;50.02
42411;BME280;28056;51.112;0.984;2023-04-05T05:57:10;101371.65;;;5.31;49.74
42411;BME280;28056;51.112;0.984;2023-04-05T05:59:37;101373.03;;;5.07;49.81
42411;BME280;28056;51.112;0.984;2023-04-05T06:02:06;101375.39;;;5.34;49.99
42411;BME280;28056;51.112;0.984;2023-04-05T06:04:33;101372.88;;;5.52;49.30
42411;BME280;28056;51.112;0.984;2023-04-05T06:07:00;101372.78;;;5.48;48.73
42411;BME280;28056;51.112;0.984;2023-04-05T06:09:28;101375.26;;;5.47;49.92
42411;BME280;28056;51.112;0.984;2023-04-05T06:11:56;101374.20;;;5.45;49.29
42411;BME280;28056;51.112;0.984;2023-04-05T06:14:23;101370.89;;;5.80;48.75
42411;BME280;28056;51.112;0.984;2023-04-05T06:16:51;101367.36;;;5.77;48.77
42411;BME280;28056;51.112;0.984;2023-04-05T06:19:19;101367.75;;;5.87;50.16
42411;BME280;28056;51.112;0.984;2023-04-05T06:21:47;101368.48;;;5.76;50.44
42411;BME280;28056;51.112;0.984;2023-04-05T06:24:14;101372.02;;;5.70;50.73
42411;BME280;28056;51.112;0.984;2023-04-05T06:26:41;101374.28;;;5.86;48.97
42411;BME280;28056;51.112;0.984;2023-04-05T06:29:09;101372.06;;;6.45;48.87
42411;BME280;28056;51.112;0.984;2023-04-05T06:31:36;101373.97;;;6.03;49.83
42411;BME280;28056;51.112;0.984;2023-04-05T06:34:03;101375.01;;;6.21;48.79
42411;BME280;28056;51.112;0.984;2023-04-05T06:36:31;101374.34;;;6.50;49.63
42411;BME280;28056;51.112;0.984;2023-04-05T06:38:59;101375.20;;;6.16;50.17
42411;BME280;28056;51.112;0.984;2023-04-05T06:41:26;101376.73;;;6.19;49.49
42411;BME280;28056;51.112;0.984;2023-04-05T06:43:54;101376.75;;;6.17;49.63
42411;BME280;28056;51.112;0.984;2023-04-05T06:46:22;101377.62;;;6.08;50.22
42411;BME280;28056;51.112;0.984;2023-04-05T06:48:50;101378.29;;;5.70;51.54
42411;BME280;28056;51.112;0.984;2023-04-05T06:51:19;101378.75;;;5.63;52.78
42411;BME280;28056;51.112;0.984;2023-04-05T06:53:46;101376.38;;;5.12;55.29
42411;BME280;28056;51.112;0.984;2023-04-05T06:56:13;101376.82;;;6.15;52.18
42411;BME280;28056;51.112;0.984;2023-04-05T06:58:40;101373.84;;;6.26;52.54
42411;BME280;28056;51.112;0.984;2023-04-05T07:01:08;101374.82;;;6.13;52.96
42411;BME280;28056;51.112;0.984;2023-04-05T07:03:36;101374.79;;;6.29;52.73
42411;BME280;28056;51.112;0.984;2023-04-05T07:06:05;101376.36;;;6.64;51.65
42411;BME280;28056;51.112;0.984;2023-04-05T07:08:33;101372.77;;;6.97;51.08
42411;BME280;28056;51.112;0.984;2023-04-05T07:11:00;101367.04;;;7.07;50.96
42411;BME280;28056;51.112;0.984;2023-04-05T07:13:27;101363.79;;;7.01;51.46
42411;BME280;28056;51.112;0.984;2023-04-05T07:15:59;101362.19;;;7.21;51.99
42411;BME280;28056;51.112;0.984;2023-04-05T07:18:27;101361.05;;;7.38;52.56
42411;BME280;28056;51.112;0.984;2023-04-05T07:20:56;101359.38;;;7.24;53.14
42411;BME280;28056;51.112;0.984;2023-04-05T07:23:24;101363.52;;;7.22;53.23
42411;BME280;28056;51.112;0.984;2023-04-05T07:25:52;101363.99;;;7.29;53.49
42411;BME280;28056;51.112;0.984;2023-04-05T07:28:20;101358.56;;;7.48;53.96
42411;BME280;28056;51.112;0.984;2023-04-05T07:30:47;101354.23;;;7.48;55.61
42411;BME280;28056;51.112;0.984;2023-04-05T07:33:15;101352.38;;;7.97;54.20
42411;BME280;28056;51.112;0.984;2023-04-05T07:35:44;101350.61;;;8.02;55.12
42411;BME280;28056;51.112;0.984;2023-04-05T07:38:12;101349.45;;;8.25;54.68
42411;BME280;28056;51.112;0.984;2023-04-05T07:40:39;101347.17;;;8.37;54.25
42411;BME280;28056;51.112;0.984;2023-04-05T07:43:07;101342.66;;;8.79;53.05
42411;BME280;28056;51.112;0.984;2023-04-05T07:45:35;101345.15;;;9.45;53.78
42411;BME280;28056;51.112;0.984;2023-04-05T07:48:03;101346.71;;;9.37;54.50
42411;BME280;28056;51.112;0.984;2023-04-05T07:50:31;101345.96;;;9.21;53.90
42411;BME280;28056;51.112;0.984;2023-04-05T07:53:00;101347.40;;;9.31;53.60
42411;BME280;28056;51.112;0.984;2023-04-05T07:55:28;101345.20;;;9.34;53.24
42411;BME280;28056;51.112;0.984;2023-04-05T07:57:56;101347.27;;;9.83;52.82
42411;BME280;28056;51.112;0.984;2023-04-05T08:00:24;101340.79;;;9.85;52.23
42411;BME280;28056;51.112;0.984;2023-04-05T08:02:51;101341.42;;;9.86;51.95
42411;BME280;28056;51.112;0.984;2023-04-05T08:05:19;101336.01;;;9.74;52.11
42411;BME280;28056;51.112;0.984;2023-04-05T08:07:47;101332.94;;;10.06;52.52
42411;BME280;28056;51.112;0.984;2023-04-05T08:10:14;101328.10;;;10.56;51.05
42411;BME280;28056;51.112;0.984;2023-04-05T08:12:42;101324.38;;;10.63;51.24
42411;BME280;28056;51.112;0.984;2023-04-05T08:15:10;101324.37;;;10.77;49.65
42411;BME280;28056;51.112;0.984;2023-04-05T08:17:37;101323.57;;;10.41;51.38
42411;BME280;28056;51.112;0.984;2023-04-05T08:20:11;101321.15;;;9.71;53.10
42411;BME280;28056;51.112;0.984;2023-04-05T08:22:39;101325.78;;;10.45;51.83
42411;BME280;28056;51.112;0.984;2023-04-05T08:25:08;101324.20;;;9.82;54.31
42411;BME280;28056;51.112;0.984;2023-04-05T08:27:35;101322.25;;;10.11;53.95
42411;BME280;28056;51.112;0.984;2023-04-05T08:30:04;101317.88;;;10.84;51.97
42411;BME280;28056;51.112;0.984;2023-04-05T08:32:32;101317.53;;;10.99;52.87
42411;BME280;28056;51.112;0.984;2023-04-05T08:34:59;101318.70;;;10.66;53.25
42411;BME280;28056;51.112;0.984;2023-04-05T08:37:27;101316.26;;;10.64;50.34
42411;BME280;28056;51.112;0.984;2023-04-05T08:39:54;101312.83;;;10.87;51.25
42411;BME280;28056;51.112;0.984;2023-04-05T08:42:28;101307.31;;;11.35;48.51
42411;BME280;28056;51.112;0.984;2023-04-05T08:44:57;101310.87;;;10.28;49.98
42411;BME280;28056;51.112;0.984;2023-04-05T08:47:26;101304.23;;;11.41;48.30
42411;BME280;28056;51.112;0.984;2023-04-05T08:49:54;101307.27;;;10.91;49.31
42411;BME280;28056;51.112;0.984;2023-04-05T08:52:22;101315.87;;;10.62;49.34
42411;BME280;28056;51.112;0.984;2023-04-05T08:54:49;101314.90;;;10.18;48.54
42411;BME280;28056;51.112;0.984;2023-04-05T08:57:22;101315.92;;;10.52;48.35
42411;BME280;28056;51.112;0.984;2023-04-05T08:59:52;101318.13;;;10.29;49.35
42411;BME280;28056;51.112;0.984;2023-04-05T09:02:22;101313.41;;;10.99;45.03
42411;BME280;28056;51.112;0.984;2023-04-05T09:04:51;101317.68;;;10.21;47.08
42411;BME280;28056;51.112;0.984;2023-04-05T09:07:20;101311.17;;;11.19;45.65
42411;BME280;28056;51.112;0.984;2023-04-05T09:09:52;101320.00;;;10.22;45.47
42411;BME280;28056;51.112;0.984;2023-04-05T09:12:21;101323.85;;;10.30;46.11
42411;BME280;28056;51.112;0.984;2023-04-05T09:14:50;101322.08;;;11.72;43.33
42411;BME280;28056;51.112;0.984;2023-04-05T09:17:18;101317.58;;;11.05;45.49
42411;BME280;28056;51.112;0.984;2023-04-05T09:19:46;101315.03;;;12.39;45.72
42411;BME280;28056;51.112;0.984;2023-04-05T09:22:13;101311.88;;;12.04;44.05
42411;BME280;28056;51.112;0.984;2023-04-05T09:24:42;101312.81;;;11.07;48.79
42411;BME280;28056;51.112;0.984;2023-04-05T09:27:12;101312.58;;;11.75;48.24
42411;BME280;28056;51.112;0.984;2023-04-05T09:29:42;101313.64;;;13.06;43.19
42411;BME280;28056;51.112;0.984;2023-04-05T09:32:12;101312.78;;;11.30;45.22
42411;BME280;28056;51.112;0.984;2023-04-05T09:34:40;101310.49;;;13.40;42.30
42411;BME280;28056;51.112;0.984;2023-04-05T09:37:14;101311.14;;;12.80;39.13
42411;BME280;28056;51.112;0.984;2023-04-05T09:39:42;101307.81;;;12.79;39.50
42411;BME280;28056;51.112;0.984;2023-04-05T09:42:11;101308.11;;;13.12;40.11
42411;BME280;28056;51.112;0.984;2023-04-05T09:44:56;101308.47;;;13.14;43.98
42411;BME280;28056;51.112;0.984;2023-04-05T09:47:25;101310.05;;;13.68;40.41
42411;BME280;28056;51.112;0.984;2023-04-05T09:49:53;101301.18;;;13.41;40.84
42411;BME280;28056;51.112;0.984;2023-04-05T09:52:22;101302.55;;;12.63;44.89
42411;BME280;28056;51.112;0.984;2023-04-05T09:54:53;101302.91;;;13.15;41.38
42411;BME280;28056;51.112;0.984;2023-04-05T09:57:22;101304.08;;;12.86;44.33
42411;BME280;28056;51.112;0.984;2023-04-05T09:59:49;101300.43;;;12.59;41.67
42411;BME280;28056;51.112;0.984;2023-04-05T10:02:17;101293.03;;;13.30;39.50
42411;BME280;28056;51.112;0.984;2023-04-05T10:04:46;101291.19;;;13.99;40.83
42411;BME280;28056;51.112;0.984;2023-04-05T10:07:15;101295.06;;;12.86;40.09
42411;BME280;28056;51.112;0.984;2023-04-05T10:09:43;101295.51;;;13.27;39.56
42411;BME280;28056;51.112;0.984;2023-04-05T10:12:20;101297.74;;;13.92;37.98
42411;BME280;28056;51.112;0.984;2023-04-05T10:14:50;101288.39;;;12.91;40.56
42411;BME280;28056;51.112;0.984;2023-04-05T10:17:22;101289.64;;;13.19;39.90
42411;BME280;28056;51.112;0.984;2023-04-05T10:20:00;101287.41;;;13.36;41.65
42411;BME280;28056;51.112;0.984;2023-04-05T10:22:39;101290.06;;;13.69;39.43
42411;BME280;28056;51.112;0.984;2023-04-05T10:25:15;101290.16;;;12.96;40.64
42411;BME280;28056;51.112;0.984;2023-04-05T10:27:57;101288.19;;;13.64;41.39
42411;BME280;28056;51.112;0.984;2023-04-05T10:30:34;101285.98;;;12.72;41.75
42411;BME280;28056;51.112;0.984;2023-04-05T10:33:10;101286.04;;;13.83;39.93
42411;BME280;28056;51.112;0.984;2023-04-05T10:35:55;101288.84;;;13.59;39.52
42411;BME280;28056;51.112;0.984;2023-04-05T10:38:26;101286.35;;;12.93;43.68
42411;BME280;28056;51.112;0.984;2023-04-05T10:40:56;101283.57;;;13.71;42.90
42411;BME280;28056;51.112;0.984;2023-04-05T10:43:26;101284.53;;;13.56;42.19
42411;BME280;28056;51.112;0.984;2023-04-05T10:45:57;101280.25;;;14.23;43.41
42411;BME280;28056;51.112;0.984;2023-04-05T10:48:36;101278.15;;;14.12;41.62
42411;BME280;28056;51.112;0.984;2023-04-05T10:51:06;101272.53;;;14.21;39.43
42411;BME280;28056;51.112;0.984;2023-04-05T10:53:36;101275.08;;;13.76;39.82
42411;BME280;28056;51.112;0.984;2023-04-05T10:56:05;101271.82;;;13.29;42.16
42411;BME280;28056;51.112;0.984;2023-04-05T10:58:34;101272.61;;;14.03;40.30
42411;BME280;28056;51.112;0.984;2023-04-05T11:01:03;101269.96;;;13.57;41.34
42411;BME280;28056;51.112;0.984;2023-04-05T11:03:47;101269.27;;;13.45;40.36
42411;BME280;28056;51.112;0.984;2023-04-05T11:06:20;101265.94;;;13.93;39.80
42411;BME280;28056;51.112;0.984;2023-04-05T11:08:54;101268.35;;;14.05;39.98
42411;BME280;28056;51.112;0.984;2023-04-05T11:11:23;101266.04;;;13.39;40.26
42411;BME280;28056;51.112;0.984;2023-04-05T11:13:53;101264.60;;;13.48;41.42
42411;BME280;28056;51.112;0.984;2023-04-05T11:16:22;101265.55;;;13.60;41.67
42411;BME280;28056;51.112;0.984;2023-04-05T11:18:51;101258.29;;;14.15;39.29
42411;BME280;28056;51.112;0.984;2023-04-05T11:21:21;101255.25;;;14.30;39.93
42411;BME280;28056;51.112;0.984;2023-04-05T11:24:06;101252.06;;;13.28;39.57
42411;BME280;28056;51.112;0.984;2023-04-05T11:26:52;101248.74;;;12.94;40.66
42411;BME280;28056;51.112;0.984;2023-04-05T11:29:46;101248.15;;;13.26;41.72
42411;BME280;28056;51.112;0.984;2023-04-05T11:32:13;101246.01;;;13.50;41.20
42411;BME280;28056;51.112;0.984;2023-04-05T11:34:42;101239.05;;;12.68;42.60
42411;BME280;28056;51.112;0.984;2023-04-05T11:37:10;101242.26;;;12.35;44.63
42411;BME280;28056;51.112;0.984;2023-04-05T11:39:37;101233.74;;;13.02;42.08
42411;BME280;28056;51.112;0.984;2023-04-05T11:42:08;101229.60;;;13.01;40.82
42411;BME280;28056;51.112;0.984;2023-04-05T11:44:40;101233.81;;;12.52;42.63
42411;BME280;28056;51.112;0.984;2023-04-05T11:47:07;101232.11;;;13.21;44.47
42411;BME280;28056;51.112;0.984;2023-04-05T11:49:36;101232.58;;;13.24;40.86
42411;BME280;28056;51.112;0.984;2023-04-05T11:52:13;101230.40;;;14.49;38.99
42411;BME280;28056;51.112;0.984;2023-04-05T11:54:41;101225.59;;;13.68;39.27
42411;BME280;28056;51.112;0.984;2023-04-05T11:57:11;101216.36;;;13.61;39.98
42411;BME280;28056;51.112;0.984;2023-04-05T11:59:40;101213.19;;;13.43;40.09
42411;BME280;28056;51.112;0.984;2023-04-05T12:02:08;101215.93;;;13.15;41.33
42411;BME280;28056;51.112;0.984;2023-04-05T12:04:37;101211.67;;;13.12;41.64
42411;BME280;28056;51.112;0.984;2023-04-05T12:07:14;101214.17;;;13.04;41.76
42411;BME280;28056;51.112;0.984;2023-04-05T12:10:17;101212.11;;;13.98;39.99
42411;BME280;28056;51.112;0.984;2023-04-05T12:12:45;101206.85;;;13.64;43.68
42411;BME280;28056;51.112;0.984;2023-04-05T12:15:13;101207.75;;;15.05;40.82
42411;BME280;28056;51.112;0.984;2023-04-05T12:17:43;101204.60;;;15.56;40.94
42411;BME280;28056;51.112;0.984;2023-04-05T12:20:13;101199.44;;;15.28;35.38
42411;BME280;28056;51.112;0.984;2023-04-05T12:22:42;101202.93;;;14.44;35.41
42411;BME280;28056;51.112;0.984;2023-04-05T12:25:10;101196.34;;;15.45;35.47
42411;BME280;28056;51.112;0.984;2023-04-05T12:27:39;101193.60;;;15.39;32.96
42411;BME280;28056;51.112;0.984;2023-04-05T12:30:08;101190.10;;;15.58;31.99
42411;BME280;28056;51.112;0.984;2023-04-05T12:32:41;101192.15;;;14.98;34.77
42411;BME280;28056;51.112;0.984;2023-04-05T12:35:14;101189.33;;;14.74;33.26
42411;BME280;28056;51.112;0.984;2023-04-05T12:37:42;101189.78;;;14.67;36.29
42411;BME280;28056;51.112;0.984;2023-04-05T12:40:10;101181.67;;;15.47;37.74
42411;BME280;28056;51.112;0.984;2023-04-05T12:42:39;101186.94;;;15.49;35.51
42411;BME280;28056;51.112;0.984;2023-04-05T12:45:10;101185.05;;;14.14;34.36
42411;BME280;28056;51.112;0.984;2023-04-05T12:47:48;101187.23;;;14.80;35.54
42411;BME280;28056;51.112;0.984;2023-04-05T12:50:17;101181.07;;;15.05;38.82
42411;BME280;28056;51.112;0.984;2023-04-05T12:52:54;101176.84;;;15.59;37.02
42411;BME280;28056;51.112;0.984;2023-04-05T12:55:22;101173.55;;;15.44;33.04
42411;BME280;28056;51.112;0.984;2023-04-05T12:57:52;101173.88;;;16.01;33.03
42411;BME280;28056;51.112;0.984;2023-04-05T13:00:21;101170.88;;;14.24;34.25
42411;BME280;28056;51.112;0.984;2023-04-05T13:02:49;101168.49;;;16.23;31.15
42411;BME280;28056;51.112;0.984;2023-04-05T13:05:17;101158.73;;;16.94;32.30
42411;BME280;28056;51.112;0.984;2023-04-05T13:07:44;101161.72;;;16.15;36.77
42411;BME280;28056;51.112;0.984;2023-04-05T13:10:11;101156.32;;;15.42;33.23